Time;durP1;ratioP1;P1;durP2;ratioP2;P2;SDS_P1;SDS_P2;PMS_P1;PMS_P2;Temp;Humidity;BMP_temperature;BMP_pressure;BME280_temperature;BME280_humidity;BME280_pressure;Samples;Min_cycle;Max_cycle;Signal;HPM_P1;HPM_P2
2022/01/17 00:01:51;;;;;;;14.25;12.82;;;16.80;65.00;;;;;;4957023;28;20049;-17
2022/01/17 00:04:17;;;;;;;13.38;11.93;;;16.80;65.80;;;;;;4957462;28;20047;-19
2022/01/17 00:06:43;;;;;;;14.07;12.65;;;16.80;65.00;;;;;;4957094;28;20047;-20
2022/01/17 00:09:09;;;;;;;14.68;13.18;;;16.80;65.10;;;;;;4957314;28;20633;-19
2022/01/17 00:11:40;;;;;;;13.38;11.75;;;16.80;65.00;;;;;;4957415;28;20130;-17
2022/01/17 00:14:11;;;;;;;12.00;10.80;;;16.80;65.00;;;;;;4957011;28;20094;-17
2022/01/17 00:16:43;;;;;;;12.75;11.10;;;16.80;64.90;;;;;;4957405;28;20043;-19
2022/01/17 00:21:50;;;;;;;12.10;10.90;;;16.80;64.70;;;;;;4956826;28;20067;-20
2022/01/17 00:24:18;;;;;;;12.88;11.52;;;16.80;64.60;;;;;;4956734;28;20050;-19
2022/01/17 00:26:46;;;;;;;12.00;10.85;;;16.90;64.40;;;;;;4956427;28;20065;-20
2022/01/17 00:29:11;;;;;;;12.15;10.95;;;16.80;64.40;;;;;;4957402;28;20071;-19
2022/01/17 00:31:37;;;;;;;11.65;10.45;;;16.90;64.30;;;;;;4957256;28;20051;-20
2022/01/17 00:34:02;;;;;;;11.68;10.57;;;16.90;64.20;;;;;;4956612;28;20277;-20
2022/01/17 00:36:28;;;;;;;11.95;10.88;;;16.90;64.10;;;;;;4957038;28;20062;-20
2022/01/17 00:38:54;;;;;;;11.75;10.52;;;16.90;64.00;;;;;;4956412;28;20066;-18
2022/01/17 00:41:19;;;;;;;11.35;10.15;;;16.90;63.80;;;;;;4957264;28;20043;-18
2022/01/17 00:43:45;;;;;;;10.70;9.70;;;16.90;63.80;;;;;;4956754;28;20042;-17
2022/01/17 00:46:11;;;;;;;10.45;9.45;;;16.90;64.00;;;;;;4956943;28;20407;-19
2022/01/17 00:48:36;;;;;;;11.88;10.77;;;16.80;63.90;;;;;;4957178;28;20126;-19
2022/01/17 00:51:02;;;;;;;10.85;9.85;;;16.80;64.00;;;;;;4956558;28;20043;-21
2022/01/17 00:53:28;;;;;;;10.52;9.52;;;16.80;64.00;;;;;;4957124;28;20043;-19
2022/01/17 00:55:54;;;;;;;11.05;9.93;;;16.80;64.10;;;;;;4956104;28;20558;-16
2022/01/17 00:58:21;;;;;;;10.18;9.27;;;16.80;63.80;;;;;;4956574;28;20051;-19
2022/01/17 01:00:47;;;;;;;10.63;9.60;;;16.80;63.80;;;;;;4956284;28;20074;-19
2022/01/17 01:03:12;;;;;;;9.77;8.88;;;16.80;63.90;;;;;;4957038;28;20055;-18
2022/01/17 01:05:38;;;;;;;9.45;8.43;;;16.80;64.00;;;;;;4956897;28;20078;-19
2022/01/17 01:08:04;;;;;;;11.38;9.90;;;16.70;64.00;;;;;;4956344;28;20089;-17
2022/01/17 01:10:30;;;;;;;9.88;8.88;;;16.70;64.10;;;;;;4956653;28;20051;-18
2022/01/17 01:12:55;;;;;;;10.07;9.18;;;16.70;64.20;;;;;;4959359;28;20447;-16
2022/01/17 01:15:34;;;;;;;9.65;8.75;;;16.70;64.10;;;;;;4960475;28;20054;-16
2022/01/17 01:18:02;;;;;;;9.70;8.90;;;16.80;64.00;;;;;;4960064;28;20071;-17
2022/01/17 01:28:26;;;;;;;8.88;8.07;;;16.70;64.00;;;;;;4959724;28;20046;-17
2022/01/17 01:30:54;;;;;;;9.35;8.55;;;16.70;64.00;;;;;;4959356;28;20047;-20
2022/01/17 01:33:28;;;;;;;8.60;7.90;;;16.70;64.70;;;;;;4960055;28;20492;-17
2022/01/17 01:36:00;;;;;;;8.82;8.05;;;16.80;63.80;;;;;;4959321;28;20059;-18
2022/01/17 01:38:26;;;;;;;8.30;7.60;;;16.80;63.70;;;;;;4960150;28;20054;-20
2022/01/17 01:40:51;;;;;;;7.43;6.88;;;16.80;63.60;;;;;;4959156;28;20130;-19
2022/01/17 01:43:17;;;;;;;8.65;7.75;;;16.70;63.70;;;;;;4960026;28;20114;-18
2022/01/17 01:45:49;;;;;;;7.20;6.63;;;16.70;63.80;;;;;;4959431;28;20043;-19
2022/01/17 01:48:18;;;;;;;6.95;6.45;;;16.70;63.70;;;;;;4959849;28;20043;-20
2022/01/17 01:50:44;;;;;;;7.05;6.47;;;16.70;63.70;;;;;;4959250;28;20047;-19
2022/01/17 01:53:10;;;;;;;7.47;6.88;;;16.70;63.70;;;;;;4959839;28;20047;-17
2022/01/17 01:55:36;;;;;;;7.57;6.95;;;16.70;63.60;;;;;;4959429;28;20047;-17
2022/01/17 01:58:01;;;;;;;7.20;6.70;;;16.70;63.60;;;;;;4959009;28;20102;-19
2022/01/17 02:00:27;;;;;;;6.95;6.38;;;16.70;63.60;;;;;;4959708;28;20051;-19
2022/01/17 02:02:52;;;;;;;7.10;6.55;;;16.70;63.50;;;;;;4958928;28;20472;-18
2022/01/17 02:05:18;;;;;;;6.60;6.10;;;16.70;63.60;;;;;;4959553;28;20047;-20
2022/01/17 02:07:44;;;;;;;6.70;6.20;;;16.70;63.60;;;;;;4959621;28;20050;-20
2022/01/17 02:10:10;;;;;;;6.82;6.38;;;16.70;63.60;;;;;;4958794;28;20047;-19
2022/01/17 02:12:36;;;;;;;7.20;6.68;;;16.70;63.60;;;;;;4959502;28;20047;-19
2022/01/17 02:15:02;;;;;;;7.50;6.80;;;16.80;63.40;;;;;;4958860;28;20047;-20
2022/01/17 02:17:30;;;;;;;7.07;6.47;;;16.70;63.60;;;;;;4959379;28;21449;-16
2022/01/17 02:20:04;;;;;;;7.22;6.63;;;16.70;63.50;;;;;;4958731;28;20043;-20
2022/01/17 02:22:30;;;;;;;;;;;16.70;63.50;;;;;;4959723;28;20126;-18
2022/01/17 02:24:56;;;;;;;6.90;6.40;;;16.70;63.50;;;;;;4958323;28;19965;-19
2022/01/17 02:27:21;;;;;;;6.50;6.00;;;16.70;63.50;;;;;;4959175;28;20051;-20
2022/01/17 02:29:47;;;;;;;7.75;7.15;;;16.70;63.40;;;;;;4958640;28;20051;-21
2022/01/17 02:32:13;;;;;;;6.63;6.05;;;16.70;63.50;;;;;;4959168;28;20054;-20
2022/01/17 02:34:41;;;;;;;6.57;6.03;;;16.70;63.50;;;;;;4958659;28;20054;-17
2022/01/17 02:37:08;;;;;;;6.10;5.60;;;16.70;63.40;;;;;;4958398;28;20084;-18
2022/01/17 02:39:33;;;;;;;5.63;5.22;;;16.70;63.50;;;;;;4958738;28;20085;-19
2022/01/17 02:42:03;;;;;;;5.70;5.30;;;16.70;63.40;;;;;;4958355;28;20066;-20
2022/01/17 02:44:28;;;;;;;6.10;5.70;;;16.70;63.50;;;;;;4958871;28;20048;-19
2022/01/17 02:46:54;;;;;;;6.07;5.57;;;16.70;63.40;;;;;;4958276;28;20118;-20
2022/01/17 02:49:19;;;;;;;5.80;5.40;;;16.70;63.50;;;;;;4958830;28;20035;-20
2022/01/17 02:51:48;;;;;;;5.90;5.57;;;16.60;63.60;;;;;;4958773;28;20043;-18
2022/01/17 02:54:14;;;;;;;5.47;5.07;;;16.60;63.50;;;;;;4957830;28;20047;-21
2022/01/17 02:56:40;;;;;;;5.45;5.05;;;16.70;63.60;;;;;;4958677;28;20043;-21
2022/01/17 02:59:06;;;;;;;6.10;5.70;;;16.70;63.50;;;;;;4958037;28;20047;-19
2022/01/17 03:01:32;;;;;;;5.30;4.88;;;16.60;63.50;;;;;;4958583;28;20050;-19
2022/01/17 03:03:58;;;;;;;5.28;4.97;;;16.70;63.40;;;;;;4957966;28;20488;-19
2022/01/17 03:06:23;;;;;;;5.10;4.70;;;16.70;63.30;;;;;;4958281;28;20074;-17
2022/01/17 03:08:50;;;;;;;5.65;5.25;;;16.70;63.20;;;;;;4956392;28;20503;-19
2022/01/17 03:11:22;;;;;;;5.38;4.97;;;16.70;63.30;;;;;;4958304;28;20046;-19
2022/01/17 03:13:50;;;;;;;4.85;4.55;;;16.60;63.40;;;;;;4957910;28;20054;-18
2022/01/17 03:16:16;;;;;;;5.43;5.05;;;16.70;63.40;;;;;;4958410;28;20043;-19
2022/01/17 03:18:47;;;;;;;5.15;4.80;;;16.70;63.30;;;;;;4958169;28;20047;-17
2022/01/17 03:21:13;;;;;;;5.20;4.80;;;16.70;63.40;;;;;;4957685;28;20514;-20
2022/01/17 03:23:39;;;;;;;5.05;4.70;;;16.60;63.40;;;;;;4958379;28;20504;-18
2022/01/17 03:26:05;;;;;;;5.10;4.80;;;16.60;63.50;;;;;;4957190;28;20051;-18
2022/01/17 03:28:31;;;;;;;4.72;4.43;;;16.60;63.50;;;;;;4958147;28;20074;-19
2022/01/17 03:30:57;;;;;;;5.20;4.88;;;16.60;63.40;;;;;;4957571;28;20117;-19
2022/01/17 03:33:23;;;;;;;4.70;4.30;;;16.60;63.40;;;;;;4958044;28;20051;-21
2022/01/17 03:35:48;;;;;;;4.95;4.65;;;16.60;63.70;;;;;;4957471;28;20066;-18
2022/01/17 03:38:17;;;;;;;4.72;4.45;;;16.60;63.80;;;;;;4957024;28;20051;-20
2022/01/17 03:40:45;;;;;;;4.53;4.22;;;16.60;64.40;;;;;;4957781;28;20051;-18
2022/01/17 03:43:10;;;;;;;4.65;4.35;;;16.60;64.80;;;;;;4957255;28;20054;-21
2022/01/17 03:45:36;;;;;;;4.95;4.65;;;16.50;65.10;;;;;;4957817;28;20134;-17
2022/01/17 03:48:01;;;;;;;4.43;4.13;;;16.60;65.20;;;;;;4957216;28;20071;-18
2022/01/17 03:50:27;;;;;;;4.25;3.95;;;16.50;65.20;;;;;;4957888;28;20043;-19
2022/01/17 03:52:53;;;;;;;4.13;3.83;;;16.50;65.30;;;;;;4957288;28;20081;-20
2022/01/17 03:55:20;;;;;;;4.07;3.80;;;16.50;65.50;;;;;;4957354;28;20047;-20
2022/01/17 03:57:45;;;;;;;4.20;3.90;;;16.50;65.40;;;;;;4957675;28;20047;-19
2022/01/17 04:00:20;;;;;;;4.50;4.20;;;16.50;65.50;;;;;;4957061;28;20566;-19
2022/01/17 04:02:45;;;;;;;;;;;16.50;65.40;;;;;;4958269;28;20043;-19
2022/01/17 04:05:11;;;;;;;4.10;3.80;;;16.50;65.50;;;;;;4956984;28;20310;-17
2022/01/17 04:07:36;;;;;;;4.25;4.05;;;16.40;65.50;;;;;;4957504;28;20054;-17
2022/01/17 04:10:03;;;;;;;4.20;3.90;;;16.40;65.50;;;;;;4956396;28;20116;-18
2022/01/17 04:12:28;;;;;;;4.43;4.13;;;16.40;65.40;;;;;;4957432;28;20066;-20
2022/01/17 04:14:55;;;;;;;3.90;3.70;;;16.40;65.40;;;;;;4956880;28;20051;-20
2022/01/17 04:17:26;;;;;;;3.95;3.72;;;16.40;65.40;;;;;;4957390;28;20057;-19
2022/01/17 04:19:59;;;;;;;3.80;3.50;;;16.40;65.30;;;;;;4957465;28;20563;-19
2022/01/17 04:22:25;;;;;;;3.95;3.65;;;16.40;65.20;;;;;;4956985;28;20045;-19
2022/01/17 04:24:50;;;;;;;3.55;3.35;;;16.50;65.00;;;;;;4957008;28;20231;-18
2022/01/17 04:27:16;;;;;;;3.47;3.28;;;16.60;64.70;;;;;;4956726;28;20043;-21
2022/01/17 04:29:41;;;;;;;3.30;3.10;;;16.60;64.70;;;;;;4957458;28;20381;-21
2022/01/17 04:32:07;;;;;;;3.60;3.40;;;16.60;64.70;;;;;;4956854;28;20063;-20
2022/01/17 04:34:34;;;;;;;3.80;3.55;;;16.60;64.60;;;;;;4957006;28;20049;-16
2022/01/17 04:37:00;;;;;;;3.55;3.30;;;16.60;64.60;;;;;;4956694;28;20035;-19
2022/01/17 04:39:25;;;;;;;3.30;3.10;;;16.50;64.50;;;;;;4957090;28;20040;-19
2022/01/17 04:41:51;;;;;;;3.83;3.53;;;16.50;64.50;;;;;;4957102;28;20039;-19
2022/01/17 04:47:01;;;;;;;3.05;2.85;;;16.60;64.50;;;;;;4958483;28;20110;-19
2022/01/17 04:49:26;;;;;;;3.50;3.30;;;16.50;64.50;;;;;;4961086;28;20047;-18
2022/01/17 04:51:54;;;;;;;3.13;2.92;;;16.50;64.50;;;;;;4961058;28;20035;-17
2022/01/17 04:56:55;;;;;;;3.30;3.00;;;16.60;64.30;;;;;;4960907;28;20109;-18
2022/01/17 04:59:21;;;;;;;2.97;2.78;;;16.60;64.20;;;;;;4960491;28;20055;-18
2022/01/17 05:01:47;;;;;;;3.15;2.95;;;16.60;64.20;;;;;;4960750;28;20069;-17
2022/01/17 05:04:12;;;;;;;3.10;2.90;;;16.50;64.20;;;;;;4960272;28;20051;-18
2022/01/17 05:06:38;;;;;;;3.15;2.95;;;16.60;64.20;;;;;;4960615;28;20510;-20
2022/01/17 05:09:04;;;;;;;2.80;2.67;;;16.50;64.20;;;;;;4959926;28;20058;-17
2022/01/17 05:11:30;;;;;;;2.90;2.70;;;16.50;64.20;;;;;;4960677;28;20082;-19
2022/01/17 05:13:56;;;;;;;2.80;2.60;;;16.50;64.30;;;;;;4958964;28;20043;-18
2022/01/17 05:16:30;;;;;;;2.83;2.63;;;16.50;64.30;;;;;;4960059;28;20050;-19
2022/01/17 05:21:40;;;;;;;2.55;2.42;;;16.50;64.40;;;;;;4960120;28;20058;-17
2022/01/17 05:24:05;;;;;;;2.90;2.70;;;16.50;64.40;;;;;;4959676;28;20130;-18
2022/01/17 05:26:31;;;;;;;3.00;2.80;;;16.50;64.30;;;;;;4960257;28;20051;-17
2022/01/17 05:28:56;;;;;;;2.92;2.78;;;16.50;64.40;;;;;;4959873;28;20051;-17
2022/01/17 05:31:22;;;;;;;2.50;2.40;;;16.50;64.30;;;;;;4960424;28;20057;-16
2022/01/17 05:33:48;;;;;;;2.30;2.20;;;16.50;64.30;;;;;;4960226;28;20036;-19
2022/01/17 05:36:13;;;;;;;2.30;2.20;;;16.40;64.30;;;;;;4959411;28;20063;-17
2022/01/17 05:38:39;;;;;;;2.70;2.50;;;16.50;64.40;;;;;;4959999;28;20047;-17
2022/01/17 05:41:04;;;;;;;2.58;2.20;;;16.40;64.30;;;;;;4959492;28;20087;-19
2022/01/17 05:43:30;;;;;;;2.63;2.53;;;16.40;64.20;;;;;;4960078;28;20416;-17
2022/01/17 05:45:56;;;;;;;2.40;2.30;;;16.40;64.30;;;;;;4959665;28;20058;-17
2022/01/17 05:48:22;;;;;;;2.63;2.53;;;16.40;64.30;;;;;;4959524;28;20043;-18
2022/01/17 05:50:47;;;;;;;2.10;2.00;;;16.40;64.30;;;;;;4959970;28;20558;-21
2022/01/17 05:53:14;;;;;;;2.88;2.67;;;16.40;64.20;;;;;;4959429;28;20075;-20
2022/01/17 05:55:40;;;;;;;2.13;2.03;;;16.40;64.30;;;;;;4959717;28;20107;-18
2022/01/17 05:58:06;;;;;;;2.85;2.65;;;16.40;64.20;;;;;;4958744;28;20047;-20
2022/01/17 06:00:31;;;;;;;2.50;2.40;;;16.40;64.20;;;;;;4959808;28;20047;-20
2022/01/17 06:02:57;;;;;;;2.55;2.38;;;16.40;64.30;;;;;;4959782;28;20130;-19
2022/01/17 06:05:22;;;;;;;2.58;2.40;;;16.40;64.20;;;;;;4959026;28;20047;-17
2022/01/17 06:07:48;;;;;;;2.42;2.33;;;16.40;64.20;;;;;;4959796;28;20496;-20
2022/01/17 06:10:14;;;;;;;2.10;2.00;;;16.40;64.30;;;;;;4958761;28;20081;-20
2022/01/17 06:12:39;;;;;;;2.10;2.00;;;16.30;64.30;;;;;;4959017;28;20126;-20
2022/01/17 06:15:05;;;;;;;2.20;2.10;;;16.40;64.20;;;;;;4959017;28;20098;-17
2022/01/17 06:17:31;;;;;;;1.98;1.88;;;16.40;64.30;;;;;;4959250;28;20035;-19
2022/01/17 06:19:56;;;;;;;2.40;2.30;;;16.40;64.50;;;;;;4959491;28;20051;-20
2022/01/17 06:22:22;;;;;;;1.92;1.83;;;16.40;64.50;;;;;;4958842;28;20126;-18
2022/01/17 06:24:47;;;;;;;2.13;2.03;;;16.40;64.60;;;;;;4959040;28;20051;-19
2022/01/17 06:27:13;;;;;;;2.50;2.40;;;16.40;64.60;;;;;;4958691;28;20047;-19
2022/01/17 06:29:39;;;;;;;2.10;2.00;;;16.40;64.60;;;;;;4959313;28;20066;-19
2022/01/17 06:32:05;;;;;;;2.10;2.00;;;16.40;64.70;;;;;;4958775;28;20047;-19
2022/01/17 06:34:31;;;;;;;2.22;2.13;;;16.40;64.60;;;;;;4958882;28;20071;-19
2022/01/17 06:36:56;;;;;;;2.30;2.20;;;16.40;64.70;;;;;;4959225;28;20067;-19
2022/01/17 06:39:22;;;;;;;2.08;1.98;;;16.30;64.60;;;;;;4958201;28;20043;-17
2022/01/17 06:41:47;;;;;;;1.90;1.80;;;16.30;64.50;;;;;;4958433;28;20567;-19
2022/01/17 06:44:13;;;;;;;2.30;2.17;;;16.30;64.70;;;;;;4957813;28;20077;-19
2022/01/17 06:46:38;;;;;;;2.10;2.00;;;16.30;64.70;;;;;;4958202;28;20061;-18
2022/01/17 06:49:04;;;;;;;2.35;2.25;;;16.30;64.70;;;;;;4957465;28;20043;-18
2022/01/17 06:51:30;;;;;;;1.88;1.77;;;16.30;64.70;;;;;;4958307;28;20047;-18
2022/01/17 06:53:55;;;;;;;2.35;2.20;;;16.30;64.90;;;;;;4957944;28;20110;-20
2022/01/17 06:56:21;;;;;;;2.30;2.20;;;16.30;64.80;;;;;;4957177;28;20063;-19
2022/01/17 06:58:46;;;;;;;2.17;2.08;;;16.30;64.70;;;;;;4956887;28;20077;-20
2022/01/17 07:01:14;;;;;;;2.42;2.33;;;16.30;64.70;;;;;;4953477;28;20043;-19
2022/01/17 07:03:39;;;;;;;2.28;2.17;;;16.30;64.50;;;;;;4957563;28;20047;-19
2022/01/17 07:06:05;;;;;;;2.00;1.90;;;16.30;64.60;;;;;;4956838;28;20058;-17
2022/01/17 07:08:31;;;;;;;2.13;2.03;;;16.30;64.50;;;;;;4956384;28;20082;-16
2022/01/17 07:10:56;;;;;;;1.92;1.83;;;16.30;64.60;;;;;;4956781;28;20082;-20
2022/01/17 07:13:22;;;;;;;1.70;1.60;;;16.30;64.50;;;;;;4956681;28;20138;-20
2022/01/17 07:15:48;;;;;;;2.08;1.98;;;16.30;64.40;;;;;;4955525;28;20055;-19
2022/01/17 07:18:13;;;;;;;2.10;2.00;;;16.30;64.70;;;;;;4955603;28;20047;-17
2022/01/17 07:20:39;;;;;;;1.88;1.77;;;16.30;64.80;;;;;;4957486;28;20055;-17
2022/01/17 07:23:05;;;;;;;1.90;1.80;;;16.20;65.00;;;;;;4954302;28;20536;-18
2022/01/17 07:25:30;;;;;;;1.65;1.55;;;16.20;65.10;;;;;;4955741;28;20058;-20
2022/01/17 07:27:57;;;;;;;1.95;1.85;;;16.30;65.00;;;;;;4956980;28;20054;-19
2022/01/17 07:30:23;;;;;;;1.73;1.63;;;16.30;65.00;;;;;;4953062;28;20109;-18
2022/01/17 07:32:48;;;;;;;1.80;1.70;;;16.30;64.60;;;;;;4957328;28;20038;-17
2022/01/17 07:35:14;;;;;;;1.73;1.63;;;16.30;64.40;;;;;;4956579;28;20055;-20
2022/01/17 07:37:40;;;;;;;1.85;1.75;;;16.30;64.50;;;;;;4957249;28;20047;-20
2022/01/17 07:40:06;;;;;;;1.98;1.88;;;16.30;64.40;;;;;;4954963;28;20130;-20
2022/01/17 07:42:31;;;;;;;1.75;1.65;;;16.30;64.70;;;;;;4956006;28;20136;-19
2022/01/17 07:44:58;;;;;;;2.00;1.90;;;16.30;64.60;;;;;;4955385;28;20084;-16
2022/01/17 07:47:40;;;;;;;2.58;1.92;;;16.30;64.70;;;;;;4955727;28;20047;-17
2022/01/17 07:50:06;;;;;;;2.10;2.00;;;16.30;64.70;;;;;;4955733;28;20077;-19
2022/01/17 07:52:32;;;;;;;2.25;1.75;;;16.30;64.50;;;;;;4955581;28;20072;-18
2022/01/17 07:54:58;;;;;;;2.15;2.05;;;16.30;64.60;;;;;;4987570;28;20047;-18
2022/01/17 07:57:24;;;;;;;2.13;2.03;;;16.30;64.60;;;;;;4987565;28;20055;-17
2022/01/17 07:59:49;;;;;;;1.90;1.80;;;16.30;64.70;;;;;;4957112;28;20121;-16
2022/01/17 08:02:15;;;;;;;1.58;1.48;;;16.30;64.70;;;;;;4957341;28;20039;-17
2022/01/17 08:04:40;;;;;;;1.75;1.65;;;16.30;64.50;;;;;;4957076;28;20059;-18
2022/01/17 08:07:07;;;;;;;1.95;1.85;;;16.30;64.50;;;;;;4956113;28;20094;-17
2022/01/17 08:09:33;;;;;;;1.90;1.80;;;16.30;64.60;;;;;;4955823;28;20043;-18
2022/01/17 08:11:59;;;;;;;1.95;1.85;;;16.30;64.50;;;;;;4956065;28;20074;-16
2022/01/17 08:14:24;;;;;;;1.60;1.50;;;16.30;64.70;;;;;;4956629;28;20070;-19
2022/01/17 08:16:51;;;;;;;1.90;1.80;;;16.20;64.70;;;;;;4957363;28;20099;-18
2022/01/17 08:19:17;;;;;;;2.22;2.13;;;16.20;64.70;;;;;;4956875;28;20050;-18
2022/01/17 08:21:43;;;;;;;1.90;1.80;;;16.20;64.70;;;;;;4957116;28;20039;-19
2022/01/17 08:24:09;;;;;;;1.80;1.70;;;16.30;64.80;;;;;;4956718;28;20050;-26
2022/01/17 08:26:37;;;;;;;1.60;1.50;;;16.20;64.70;;;;;;4955025;28;20039;-19
2022/01/17 08:29:02;;;;;;;2.20;2.10;;;16.20;64.80;;;;;;4957231;28;20138;-20
2022/01/17 08:31:28;;;;;;;1.92;1.83;;;16.30;64.60;;;;;;4956163;28;20074;-17
2022/01/17 08:33:53;;;;;;;1.75;1.65;;;16.30;64.60;;;;;;4956520;28;20071;-19
2022/01/17 08:36:20;;;;;;;1.88;1.77;;;16.30;64.50;;;;;;4956575;28;20499;-20
2022/01/17 08:38:48;;;;;;;1.75;1.65;;;16.30;64.60;;;;;;4957039;28;20457;-18
2022/01/17 08:41:16;;;;;;;1.77;1.67;;;16.30;64.50;;;;;;4956524;28;20050;-17
2022/01/17 08:43:41;;;;;;;1.60;1.50;;;16.20;64.70;;;;;;4956965;28;20047;-21
2022/01/17 08:46:07;;;;;;;1.85;1.75;;;16.20;64.70;;;;;;4957031;28;20071;-19
2022/01/17 08:48:33;;;;;;;1.75;1.65;;;16.20;64.80;;;;;;4955107;28;20047;-17
2022/01/17 08:50:59;;;;;;;1.73;1.63;;;16.30;64.70;;;;;;4961024;28;20508;-17
2022/01/17 08:53:24;;;;;;;1.70;1.58;;;16.30;65.30;;;;;;4955656;28;20039;-17
2022/01/17 08:55:50;;;;;;;1.80;1.70;;;16.20;64.60;;;;;;4956315;28;20043;-18
2022/01/17 08:58:16;;;;;;;1.77;1.67;;;16.30;64.70;;;;;;4956019;28;20101;-21
2022/01/17 09:00:42;;;;;;;2.08;1.98;;;16.30;64.70;;;;;;4955018;28;20067;-23
2022/01/17 09:03:08;;;;;;;1.58;1.52;;;16.20;64.60;;;;;;4956616;28;20058;-19
2022/01/17 09:05:33;;;;;;;2.85;1.52;;;16.20;64.70;;;;;;4959476;28;20031;-17
2022/01/17 09:07:59;;;;;;;3.92;2.10;;;16.20;64.80;;;;;;4955662;28;20525;-19
2022/01/17 09:10:25;;;;;;;1.80;1.70;;;16.30;64.80;;;;;;4956165;29;20028;-20
2022/01/17 09:12:51;;;;;;;2.00;1.63;;;16.30;64.70;;;;;;4955270;28;20082;-19
2022/01/17 09:15:17;;;;;;;2.42;1.40;;;16.30;64.50;;;;;;4957689;28;20023;-19
2022/01/17 09:17:43;;;;;;;1.92;1.73;;;16.30;64.40;;;;;;4957470;28;20039;-19
2022/01/17 09:20:09;;;;;;;1.70;1.60;;;16.30;64.40;;;;;;4957881;28;20031;-17
2022/01/17 09:22:35;;;;;;;1.80;1.70;;;16.30;64.40;;;;;;4956586;28;20038;-19
2022/01/17 09:25:01;;;;;;;1.58;1.48;;;16.30;64.40;;;;;;4956088;28;20047;-19
2022/01/17 09:27:27;;;;;;;1.85;1.75;;;16.30;64.40;;;;;;4957549;28;20090;-17
2022/01/17 09:29:53;;;;;;;1.80;1.70;;;16.30;64.40;;;;;;4955553;28;20047;-21
2022/01/17 09:32:18;;;;;;;1.92;1.50;;;16.30;64.40;;;;;;4954817;28;20054;-19
2022/01/17 09:34:46;;;;;;;1.50;1.40;;;16.40;64.60;;;;;;4958464;28;20528;-17
2022/01/17 09:37:12;;;;;;;1.73;1.50;;;16.30;64.60;;;;;;4960081;28;20047;-17
2022/01/17 09:39:37;;;;;;;4.50;1.60;;;16.30;64.30;;;;;;4959226;28;20043;-17
2022/01/17 09:42:05;;;;;;;1.63;1.52;;;16.30;64.60;;;;;;4960095;28;20485;-19
2022/01/17 09:44:31;;;;;;;1.77;1.63;;;16.30;64.40;;;;;;4959689;28;20649;-20
2022/01/17 09:46:58;;;;;;;1.35;1.30;;;16.30;64.40;;;;;;4959507;28;20512;-22
2022/01/17 09:54:50;;;;;;;1.75;1.58;;;16.30;64.50;;;;;;4959076;28;20571;-19
2022/01/17 09:57:16;;;;;;;1.60;1.50;;;16.20;64.90;;;;;;4990076;28;20415;-20
2022/01/17 09:59:42;;;;;;;1.38;1.35;;;16.30;64.40;;;;;;4958994;28;20047;-17
2022/01/17 10:02:08;;;;;;;1.73;1.30;;;16.30;64.30;;;;;;4959752;28;20078;-18
2022/01/17 10:04:34;;;;;;;1.50;1.40;;;16.30;64.30;;;;;;4958996;28;20054;-19
2022/01/17 10:06:59;;;;;;;1.73;1.63;;;16.30;64.40;;;;;;4957735;28;20102;-19
2022/01/17 10:09:26;;;;;;;1.65;1.55;;;16.30;64.40;;;;;;4958981;28;20496;-20
2022/01/17 10:12:10;;;;;;;1.60;1.50;;;16.30;64.20;;;;;;4958997;28;20047;-20
2022/01/17 10:14:36;;;;;;;2.50;1.60;;;16.20;64.50;;;;;;4958961;28;20039;-19
2022/01/17 10:17:06;;;;;;;1.50;1.40;;;16.20;64.50;;;;;;4959870;29;20034;-18
2022/01/17 10:19:32;;;;;;;2.85;1.30;;;16.30;64.40;;;;;;4958880;28;20103;-20
2022/01/17 10:22:00;;;;;;;1.65;1.50;;;16.30;64.40;;;;;;4959818;28;20433;-19
2022/01/17 10:27:46;;;;;;;1.42;1.40;;;16.30;64.40;;;;;;4958955;28;20066;-20
2022/01/17 10:30:46;;;;;;;2.25;1.30;;;16.30;64.40;;;;;;4959075;28;20051;-22
2022/01/17 10:35:39;;;;;;;1.00;1.00;;;16.30;64.50;;;;;;4939899;28;20058;-20
2022/01/17 10:38:14;;;;;;;1.10;1.10;;;16.30;64.50;;;;;;4958501;28;20476;-20
2022/01/17 10:40:41;;;;;;;1.35;1.27;;;16.30;64.40;;;;;;4958762;28;20070;-17
2022/01/17 10:43:07;;;;;;;0.90;0.90;;;16.30;64.40;;;;;;4960025;28;20030;-19
2022/01/17 10:45:43;;;;;;;1.63;1.52;;;16.30;64.40;;;;;;4956601;28;20058;-18
2022/01/17 10:48:09;;;;;;;1.58;1.48;;;16.30;64.40;;;;;;4958896;28;20156;-23
2022/01/17 10:50:48;;;;;;;1.13;1.10;;;16.30;64.30;;;;;;4958772;28;20055;-21
2022/01/17 10:53:16;;;;;;;1.58;1.48;;;16.30;64.40;;;;;;4958190;28;20130;-16
2022/01/17 10:55:52;;;;;;;1.10;1.10;;;16.30;64.40;;;;;;4958187;28;20047;-17
2022/01/17 10:58:26;;;;;;;1.10;1.05;;;16.30;64.40;;;;;;4958516;28;20114;-23
2022/01/17 11:00:57;;;;;;;1.50;1.40;;;16.30;64.50;;;;;;4956897;28;20047;-20
2022/01/17 11:03:26;;;;;;;1.20;1.20;;;16.30;64.50;;;;;;4957885;28;20044;-20
2022/01/17 11:05:53;;;;;;;1.25;1.25;;;16.30;64.50;;;;;;4957769;28;20496;-18
2022/01/17 11:08:20;;;;;;;1.38;1.33;;;16.30;64.50;;;;;;4957754;28;20133;-19
2022/01/17 11:10:47;;;;;;;1.00;1.00;;;16.30;64.50;;;;;;4958345;28;20055;-20
2022/01/17 11:13:18;;;;;;;0.90;0.90;;;16.30;64.50;;;;;;4958400;28;20047;-19
2022/01/17 11:15:46;;;;;;;1.52;1.08;;;16.30;64.70;;;;;;4950021;28;20086;-19
2022/01/17 11:18:21;;;;;;;1.17;1.17;;;16.30;64.40;;;;;;4957985;28;20062;-21
2022/01/17 11:20:52;;;;;;;1.30;1.20;;;16.30;64.40;;;;;;4611224;28;10000582;-20
2022/01/17 11:23:18;;;;;;;1.00;1.00;;;16.30;64.50;;;;;;4953749;28;20400;-19
2022/01/17 11:25:45;;;;;;;1.45;1.40;;;16.40;64.20;;;;;;4945825;28;20059;-20
2022/01/17 11:28:11;;;;;;;1.00;1.00;;;16.30;64.20;;;;;;4954356;28;20102;-20
2022/01/17 11:30:38;;;;;;;1.25;1.20;;;16.20;64.40;;;;;;4954030;28;20637;-20
2022/01/17 11:33:06;;;;;;;1.40;1.30;;;16.20;64.40;;;;;;4954645;28;20252;-17
2022/01/17 11:35:34;;;;;;;1.30;1.20;;;16.20;64.10;;;;;;4953374;28;20126;-19
2022/01/17 11:38:00;;;;;;;1.17;1.08;;;16.20;64.40;;;;;;4952954;28;20043;-20
2022/01/17 11:40:34;;;;;;;0.90;0.90;;;16.30;64.30;;;;;;4967800;28;20047;-17
2022/01/17 11:43:00;;;;;;;1.00;1.00;;;16.30;64.40;;;;;;4953978;28;20071;-18
2022/01/17 11:45:29;;;;;;;5.43;1.00;;;16.30;64.20;;;;;;4953986;28;20551;-22
2022/01/17 11:47:56;;;;;;;1.20;1.10;;;16.40;64.20;;;;;;4952737;28;20520;-20
2022/01/17 11:50:29;;;;;;;1.00;1.00;;;16.30;64.10;;;;;;4953460;28;20054;-19
2022/01/17 11:52:55;;;;;;;1.20;1.10;;;16.30;64.30;;;;;;4954228;28;20035;-22
2022/01/17 11:55:42;;;;;;;0.70;0.70;;;16.30;64.70;;;;;;4952187;28;20058;-22
2022/01/17 11:58:30;;;;;;;0.80;0.80;;;16.40;64.50;;;;;;4952707;28;20043;-19
2022/01/17 12:00:59;;;;;;;0.90;0.90;;;16.30;64.40;;;;;;4953409;28;20051;-20
2022/01/17 12:03:28;;;;;;;1.65;1.38;;;16.30;64.60;;;;;;4953374;28;20043;-18
2022/01/17 12:05:55;;;;;;;1.83;1.17;;;16.40;64.80;;;;;;4953918;28;20050;-16
2022/01/17 12:08:22;;;;;;;1.17;1.00;;;16.40;64.50;;;;;;4952903;28;20071;-21
2022/01/17 12:10:52;;;;;;;1.00;1.00;;;16.40;64.60;;;;;;4953455;28;20051;-19
2022/01/17 12:13:20;;;;;;;1.88;1.25;;;16.40;64.60;;;;;;4941644;28;20053;-18
2022/01/17 12:15:58;;;;;;;1.42;0.90;;;16.30;64.70;;;;;;4953735;28;20051;-20
2022/01/17 12:18:31;;;;;;;1.13;1.02;;;16.40;64.60;;;;;;4952994;28;20050;-21
2022/01/17 12:20:57;;;;;;;0.90;0.90;;;16.40;64.60;;;;;;4952657;28;20047;-20
2022/01/17 12:23:25;;;;;;;0.90;0.90;;;16.40;64.80;;;;;;4967736;28;20134;-20
2022/01/17 12:25:50;;;;;;;0.93;0.77;;;16.40;64.70;;;;;;4953839;28;20249;-19
2022/01/17 12:28:19;;;;;;;0.90;0.90;;;16.40;64.70;;;;;;4951881;28;20051;-20
2022/01/17 12:30:47;;;;;;;0.95;0.95;;;16.40;64.40;;;;;;4953811;28;20166;-19
2022/01/17 12:33:16;;;;;;;0.95;0.95;;;16.40;64.50;;;;;;4952847;28;20035;-18
2022/01/17 12:35:48;;;;;;;1.00;1.00;;;16.40;64.50;;;;;;4951580;28;20134;-20
2022/01/17 12:38:29;;;;;;;0.90;0.90;;;16.40;64.50;;;;;;4953390;28;20050;-20
2022/01/17 12:40:55;;;;;;;2.05;0.90;;;16.40;64.50;;;;;;4954136;28;20085;-19
2022/01/17 12:43:31;;;;;;;1.67;1.05;;;16.40;64.40;;;;;;4953360;28;20404;-18
2022/01/17 12:45:59;;;;;;;1.05;1.00;;;16.40;64.30;;;;;;4965936;28;20047;-21
2022/01/17 12:48:26;;;;;;;1.52;1.00;;;16.40;64.30;;;;;;4960259;28;20123;-20
2022/01/17 12:50:53;;;;;;;0.82;0.82;;;16.40;64.20;;;;;;4954483;28;20134;-19
2022/01/17 12:53:21;;;;;;;0.85;0.80;;;16.50;64.30;;;;;;4955547;28;20044;-20
2022/01/17 12:55:51;;;;;;;1.00;1.00;;;16.50;64.20;;;;;;4956288;28;20053;-18
2022/01/17 12:58:17;;;;;;;1.77;0.80;;;16.50;64.20;;;;;;4955495;28;20047;-20
2022/01/17 13:00:53;;;;;;;1.17;1.17;;;16.50;64.20;;;;;;4956957;28;20043;-18
2022/01/17 13:03:20;;;;;;;2.70;1.10;;;16.50;64.20;;;;;;4956411;28;20047;-19
2022/01/17 13:05:46;;;;;;;1.48;0.95;;;16.50;64.20;;;;;;4956022;28;20134;-20
2022/01/17 13:08:11;;;;;;;1.92;0.80;;;16.50;64.30;;;;;;4957534;28;20138;-18
2022/01/17 13:10:37;;;;;;;2.47;0.80;;;16.50;64.20;;;;;;4959735;28;20047;-19
2022/01/17 13:13:03;;;;;;;1.08;1.08;;;16.60;64.10;;;;;;4959710;28;20113;-18
2022/01/17 13:15:28;;;;;;;1.00;1.00;;;16.60;64.10;;;;;;4959996;28;20047;-20